Strona główna
METAR-TAF:

METAR-TAF

Lotnisko :

Keene, New Hampshire, Stany Zjednoczone

Szerokość geograficzna: 42-54N, Długość geograficzna: 072-16W, wysokość: 149 m

Aktualna obserwacja pogody

Raport powstał 14 minut temu, godzina 07:13 UTC
Wiatr 3 kt z kierunków zmiennych
Temperatura 2°C
Wilgotność 93%
Ciśnienie 1010 hPa
Widzialność: 3.2 km
Zachmurzenie całkowite na wysokości 900 ft
słaby deszcz, zamglenie

METAR: KEEN 240713Z AUTO VRB03KT 2SM -RA BR OVC009 02/01 A2983 RMK AO2 VIS 1 3/4V3 CIG 007V011 P0001 FZRANO $

czas: 02:27 (07:27 UTC)


TAF: brakujący

Obserwacja i prognoza pogody dla ponad 4000 lotnisk (raport METAR i TAF).

Dostępne stacje oznaczono żółtymi i czerwonymi punktami na mapie.

Najedź kursorem aby zobaczyć nazwę stacji.

Kliknij aby zobaczyć obserwacje i prognozy pogody.

Aby zmienić mapę: kliknij na zielony przycisk z czarnym krzyżykiem, aby powiększyć; na zielony przycisk z myślnikiem, aby pomniejszyć; na zielone strzałki, aby przejść do map sąsiednich.


METAR-TAF: